createdAt,value
2017-05-06T00:01:03.243Z,13.17
2017-05-06T00:02:13.581Z,13.2
2017-05-06T00:03:23.354Z,13.19
2017-05-06T00:04:32.456Z,13.2
2017-05-06T00:05:42.307Z,13.17
2017-05-06T00:06:51.301Z,13.15
2017-05-06T00:08:01.203Z,13.17
2017-05-06T00:09:10.196Z,13.2
2017-05-06T00:10:19.902Z,13.12
2017-05-06T00:11:29.195Z,13.19
2017-05-06T00:12:41.389Z,13.15
2017-05-06T00:13:50.384Z,13.23
2017-05-06T00:15:00.843Z,13.19
2017-05-06T00:16:09.952Z,13.14
2017-05-06T00:17:19.498Z,13.11
2017-05-06T00:18:28.491Z,13.22
2017-05-06T00:19:38.145Z,13.05
2017-05-06T00:20:47.136Z,13.12
2017-05-06T00:21:58.498Z,13.08
2017-05-06T00:23:08.821Z,13.04
2017-05-06T00:24:17.938Z,13.05
2017-05-06T00:25:28.026Z,13.07
2017-05-06T00:26:37.013Z,13.05
2017-05-06T00:27:46.917Z,13.07
2017-05-06T00:28:56.759Z,13.03
2017-05-06T00:30:08.616Z,13.01
2017-05-06T00:31:21.088Z,13.07
2017-05-06T00:32:32.665Z,13.04
2017-05-06T00:33:41.660Z,13.04
2017-05-06T00:34:51.043Z,13
2017-05-06T00:36:00.215Z,13
2017-05-06T00:37:09.203Z,13.01
2017-05-06T00:38:19.081Z,12.96
2017-05-06T00:39:28.079Z,13.01
2017-05-06T00:40:37.982Z,13.01
2017-05-06T00:41:46.971Z,13.05
2017-05-06T00:42:56.471Z,12.96
2017-05-06T00:44:05.460Z,12.97
2017-05-06T00:45:15.619Z,12.92
2017-05-06T00:46:25.368Z,13.01
2017-05-06T00:47:34.361Z,12.86
2017-05-06T00:48:43.355Z,13
2017-05-06T00:49:52.359Z,12.96
2017-05-06T00:51:01.454Z,12.93
2017-05-06T00:52:10.743Z,12.97
2017-05-06T00:53:19.731Z,13.01
2017-05-06T00:54:28.719Z,13.01
2017-05-06T00:55:37.709Z,12.97
2017-05-06T00:56:46.699Z,12.97
2017-05-06T00:57:55.941Z,13.05
2017-05-06T00:59:04.929Z,13
2017-05-06T01:00:13.919Z,13.03
2017-05-06T01:01:22.915Z,13.03
2017-05-06T01:02:31.904Z,12.96
2017-05-06T01:03:41.190Z,13.03
2017-05-06T01:04:50.197Z,13
2017-05-06T01:05:59.183Z,12.96
2017-05-06T01:07:08.174Z,13
2017-05-06T01:08:17.158Z,13.01
2017-05-06T01:09:26.473Z,13.03
2017-05-06T01:10:35.478Z,12.95
2017-05-06T01:11:44.468Z,12.92
2017-05-06T01:12:53.457Z,12.96
2017-05-06T01:14:02.456Z,13.01
2017-05-06T01:15:11.695Z,12.95
2017-05-06T01:16:20.683Z,13
2017-05-06T01:17:29.673Z,12.9
2017-05-06T01:18:38.662Z,12.89
2017-05-06T01:19:47.649Z,12.9
2017-05-06T01:20:56.939Z,12.93
2017-05-06T01:22:05.933Z,12.92
2017-05-06T01:23:14.922Z,12.89
2017-05-06T01:24:23.907Z,12.89
2017-05-06T01:25:32.902Z,12.86
2017-05-06T01:26:42.190Z,12.82
2017-05-06T01:27:51.177Z,12.75
2017-05-06T01:29:00.168Z,12.77
2017-05-06T01:30:09.152Z,12.71
2017-05-06T01:31:18.140Z,12.67
2017-05-06T01:32:27.429Z,12.7
2017-05-06T01:33:36.427Z,12.54
2017-05-06T01:34:45.414Z,12.59
2017-05-06T01:35:54.820Z,12.57
2017-05-06T01:37:03.810Z,12.54
2017-05-06T01:38:13.104Z,12.57
2017-05-06T01:39:22.091Z,12.57
2017-05-06T01:40:31.081Z,12.57
2017-05-06T01:41:40.073Z,12.56
2017-05-06T01:42:49.095Z,12.49
2017-05-06T01:43:58.397Z,12.52
2017-05-06T01:45:07.387Z,12.57
2017-05-06T01:46:16.380Z,12.56
2017-05-06T01:47:25.370Z,12.47
2017-05-06T01:48:34.360Z,12.52
2017-05-06T01:49:43.650Z,12.47
2017-05-06T01:50:52.641Z,12.5
2017-05-06T01:52:01.633Z,12.42
2017-05-06T01:53:10.618Z,12.39
2017-05-06T01:54:19.606Z,12.32
2017-05-06T01:55:28.896Z,12.34
2017-05-06T01:56:37.885Z,12.38
2017-05-06T01:57:46.878Z,12.41
2017-05-06T01:58:55.868Z,12.46
2017-05-06T02:00:04.856Z,12.41
2017-05-06T02:01:14.153Z,12.41
2017-05-06T02:02:23.138Z,12.41
2017-05-06T02:03:32.126Z,12.42
2017-05-06T02:04:41.114Z,12.5
2017-05-06T02:05:50.101Z,12.5
2017-05-06T02:06:59.723Z,12.62
2017-05-06T02:08:08.708Z,12.52
2017-05-06T02:09:17.698Z,12.46
2017-05-06T02:10:26.689Z,12.49
2017-05-06T02:11:35.677Z,12.42
2017-05-06T02:12:44.991Z,12.39
2017-05-06T02:13:53.983Z,12.39
2017-05-06T02:15:02.976Z,12.41
2017-05-06T02:16:11.961Z,12.38
2017-05-06T02:17:20.949Z,12.39
2017-05-06T02:18:30.329Z,12.41
2017-05-06T02:19:39.313Z,12.46
2017-05-06T02:20:48.302Z,12.45
2017-05-06T02:21:57.285Z,12.5
2017-05-06T02:23:06.302Z,12.46
2017-05-06T02:24:15.593Z,12.45
2017-05-06T02:25:24.580Z,12.5
2017-05-06T02:26:33.570Z,12.56
2017-05-06T02:27:42.572Z,12.54
2017-05-06T02:28:51.563Z,12.59
2017-05-06T02:30:00.803Z,12.59
2017-05-06T02:31:09.794Z,12.5
2017-05-06T02:32:18.787Z,12.6
2017-05-06T02:33:27.779Z,12.56
2017-05-06T02:34:36.766Z,12.53
2017-05-06T02:35:46.058Z,12.6
2017-05-06T02:36:55.041Z,12.67
2017-05-06T02:38:04.026Z,12.72
2017-05-06T02:39:13.009Z,12.65
2017-05-06T02:40:21.999Z,12.67
2017-05-06T02:41:31.288Z,12.62
2017-05-06T02:42:40.278Z,12.56
2017-05-06T02:43:49.274Z,12.59
2017-05-06T02:44:58.303Z,12.52
2017-05-06T02:46:07.287Z,12.59
2017-05-06T02:47:16.581Z,12.68
2017-05-06T02:48:25.570Z,12.59
2017-05-06T02:49:34.557Z,12.54
2017-05-06T02:50:43.571Z,12.53
2017-05-06T02:51:52.561Z,12.57
2017-05-06T02:53:01.949Z,12.47
2017-05-06T02:54:10.933Z,12.53
2017-05-06T02:55:19.927Z,12.46
2017-05-06T02:56:28.925Z,12.52
2017-05-06T02:57:37.917Z,12.56
2017-05-06T02:58:47.159Z,12.57
2017-05-06T02:59:56.150Z,12.7
2017-05-06T03:01:05.142Z,12.68
2017-05-06T03:02:14.139Z,12.7
2017-05-06T03:03:23.125Z,12.68
2017-05-06T03:04:32.415Z,12.68
2017-05-06T03:05:41.411Z,12.7
2017-05-06T03:06:50.402Z,12.72
2017-05-06T03:07:59.386Z,12.71
2017-05-06T03:09:08.384Z,12.74
2017-05-06T03:10:17.681Z,12.68
2017-05-06T03:11:26.679Z,12.71
2017-05-06T03:12:35.670Z,12.68
2017-05-06T03:13:44.670Z,12.67
2017-05-06T03:14:53.660Z,12.54
2017-05-06T03:16:02.906Z,12.53
2017-05-06T03:17:11.891Z,12.54
2017-05-06T03:18:20.885Z,12.57
2017-05-06T03:19:29.879Z,12.54
2017-05-06T03:20:38.865Z,12.54
2017-05-06T03:21:48.141Z,12.57
2017-05-06T03:22:57.490Z,12.6
2017-05-06T03:24:06.482Z,12.68
2017-05-06T03:25:15.471Z,12.67
2017-05-06T03:26:24.458Z,12.65
2017-05-06T03:27:33.790Z,12.64
2017-05-06T03:28:42.779Z,12.59
2017-05-06T03:29:51.769Z,12.7
2017-05-06T03:31:00.759Z,12.67
2017-05-06T03:32:09.759Z,12.64
2017-05-06T03:33:19.050Z,12.71
2017-05-06T03:34:28.043Z,12.65
2017-05-06T03:35:37.026Z,12.65
2017-05-06T03:36:46.018Z,12.77
2017-05-06T03:37:55.009Z,12.75
2017-05-06T03:39:04.253Z,12.72
2017-05-06T03:40:13.249Z,12.72
2017-05-06T03:41:22.232Z,12.71
2017-05-06T03:42:31.225Z,12.7
2017-05-06T03:43:40.216Z,12.71
2017-05-06T03:44:49.458Z,12.7
2017-05-06T03:45:58.448Z,12.67
2017-05-06T03:47:07.439Z,12.71
2017-05-06T03:48:16.428Z,12.6
2017-05-06T03:49:25.423Z,12.68
2017-05-06T03:50:34.667Z,12.7
2017-05-06T03:51:43.659Z,12.6
2017-05-06T03:52:52.977Z,12.62
2017-05-06T03:54:01.970Z,12.6
2017-05-06T03:55:10.958Z,12.54
2017-05-06T03:56:20.245Z,12.57
2017-05-06T03:57:29.234Z,12.5
2017-05-06T03:58:38.226Z,12.47
2017-05-06T03:59:47.213Z,12.56
2017-05-06T04:00:56.198Z,12.45
2017-05-06T04:02:05.439Z,12.42
2017-05-06T04:03:14.432Z,12.46
2017-05-06T04:04:23.419Z,12.47
2017-05-06T04:05:32.406Z,12.46
2017-05-06T04:06:41.395Z,12.5
2017-05-06T04:07:50.635Z,12.52
2017-05-06T04:08:59.629Z,12.57
2017-05-06T04:10:08.615Z,12.53
2017-05-06T04:11:17.602Z,12.56
2017-05-06T04:12:26.587Z,12.49
2017-05-06T04:13:35.804Z,12.47
2017-05-06T04:14:44.761Z,12.47
2017-05-06T04:15:53.716Z,12.52
2017-05-06T04:17:02.671Z,12.53
2017-05-06T04:18:12.275Z,12.53
2017-05-06T04:19:21.483Z,12.57
2017-05-06T04:20:30.443Z,12.5
2017-05-06T04:21:39.482Z,12.52
2017-05-06T04:22:48.438Z,12.54
2017-05-06T04:23:57.393Z,12.49
2017-05-06T04:25:06.604Z,12.6
2017-05-06T04:26:15.562Z,12.49
2017-05-06T04:27:24.519Z,12.52
2017-05-06T04:28:33.471Z,12.56
2017-05-06T04:29:42.443Z,12.53
2017-05-06T04:30:51.651Z,12.47
2017-05-06T04:32:01.698Z,12.57
2017-05-06T04:33:10.665Z,12.59
2017-05-06T04:34:19.619Z,12.6
2017-05-06T04:35:28.581Z,12.52
2017-05-06T04:36:37.910Z,12.54
2017-05-06T04:37:46.976Z,12.54
2017-05-06T04:38:55.940Z,12.54
2017-05-06T04:40:04.899Z,12.54
2017-05-06T04:41:13.859Z,12.57
2017-05-06T04:42:23.401Z,12.57
2017-05-06T04:43:32.392Z,12.71
2017-05-06T04:44:41.371Z,12.68
2017-05-06T04:45:50.325Z,12.7
2017-05-06T04:46:59.286Z,12.6
2017-05-06T04:48:08.488Z,12.56
2017-05-06T04:49:17.451Z,12.54
2017-05-06T04:50:26.411Z,12.57
2017-05-06T04:51:36.381Z,12.54
2017-05-06T04:52:46.229Z,12.6
2017-05-06T04:53:56.198Z,12.64
2017-05-06T04:55:05.902Z,12.7
2017-05-06T04:56:15.865Z,12.71
2017-05-06T04:57:25.620Z,12.71
2017-05-06T04:58:35.700Z,12.68
2017-05-06T04:59:44.962Z,12.75
2017-05-06T05:00:54.620Z,12.89
2017-05-06T05:02:04.511Z,12.79
2017-05-06T05:03:14.183Z,12.87
2017-05-06T05:04:23.170Z,12.9
2017-05-06T05:05:32.938Z,12.95
2017-05-06T05:06:42.457Z,12.86
2017-05-06T05:07:52.106Z,12.87
2017-05-06T05:09:01.059Z,12.86
2017-05-06T05:10:10.596Z,12.89
2017-05-06T05:11:20.283Z,12.86
2017-05-06T05:12:30.154Z,12.95
2017-05-06T05:13:39.512Z,12.86
2017-05-06T05:14:48.775Z,12.89
2017-05-06T05:15:58.246Z,12.86
2017-05-06T05:17:08.195Z,12.89
2017-05-06T05:18:17.154Z,12.86
2017-05-06T05:19:26.532Z,12.9
2017-05-06T05:20:36.158Z,12.87
2017-05-06T05:21:46.295Z,12.92
2017-05-06T05:22:57.542Z,12.9
2017-05-06T05:24:07.856Z,12.92
2017-05-06T05:25:17.532Z,12.93
2017-05-06T05:26:26.491Z,12.93
2017-05-06T05:27:35.577Z,12.97
2017-05-06T05:28:45.023Z,13
2017-05-06T05:29:53.978Z,12.96
2017-05-06T05:31:03.276Z,12.96
2017-05-06T05:32:12.300Z,13.04
2017-05-06T05:33:21.266Z,13.1
2017-05-06T05:34:30.881Z,13.1
2017-05-06T05:35:39.965Z,13.07
2017-05-06T05:36:50.277Z,13.05
2017-05-06T05:37:59.275Z,13.03
2017-05-06T05:39:08.256Z,13.07
2017-05-06T05:40:17.480Z,13.08
2017-05-06T05:41:26.434Z,13.15
2017-05-06T05:42:35.680Z,13.15
2017-05-06T05:43:44.877Z,13.11
2017-05-06T05:44:53.835Z,13.17
2017-05-06T05:46:03.164Z,13.22
2017-05-06T05:47:12.121Z,13.11
2017-05-06T05:48:21.072Z,13.19
2017-05-06T05:49:30.244Z,13.17
2017-05-06T05:50:39.285Z,13.29
2017-05-06T05:51:48.487Z,13.23
2017-05-06T05:52:57.449Z,13.19
2017-05-06T05:54:06.456Z,13.23
2017-05-06T05:55:15.423Z,13.17
2017-05-06T05:56:24.373Z,13.2
2017-05-06T05:57:33.708Z,13.2
2017-05-06T05:58:42.760Z,13.28
2017-05-06T05:59:51.823Z,13.26
2017-05-06T06:01:00.785Z,13.29
2017-05-06T06:02:09.752Z,13.39
2017-05-06T06:03:19.064Z,13.42
2017-05-06T06:04:28.023Z,13.48
2017-05-06T06:05:36.976Z,13.41
2017-05-06T06:06:45.930Z,13.44
2017-05-06T06:07:55.214Z,13.44
2017-05-06T06:09:04.432Z,13.48
2017-05-06T06:10:13.387Z,13.42
2017-05-06T06:11:22.345Z,13.49
2017-05-06T06:12:31.299Z,13.52
2017-05-06T06:13:40.261Z,13.54
2017-05-06T06:14:49.468Z,13.55
2017-05-06T06:15:58.437Z,13.62
2017-05-06T06:17:07.414Z,13.63
2017-05-06T06:18:16.401Z,13.64
2017-05-06T06:19:25.375Z,13.57
2017-05-06T06:20:34.602Z,13.71
2017-05-06T06:21:43.578Z,13.73
2017-05-06T06:22:52.566Z,13.79
2017-05-06T06:24:01.540Z,13.77
2017-05-06T06:25:10.519Z,13.79
2017-05-06T06:26:19.747Z,13.87
2017-05-06T06:27:28.723Z,13.84
2017-05-06T06:28:37.696Z,13.88
2017-05-06T06:29:46.681Z,13.89
2017-05-06T06:30:55.663Z,13.91
2017-05-06T06:32:04.898Z,13.92
2017-05-06T06:33:14.200Z,13.95
2017-05-06T06:34:23.180Z,13.87
2017-05-06T06:35:32.166Z,13.87
2017-05-06T06:36:41.142Z,13.92
2017-05-06T06:37:50.704Z,14.06
2017-05-06T06:38:59.770Z,14.02
2017-05-06T06:40:08.752Z,13.99
2017-05-06T06:41:17.740Z,14.03
2017-05-06T06:42:26.745Z,14.06
2017-05-06T06:43:35.969Z,14.03
2017-05-06T06:44:44.949Z,14.02
2017-05-06T06:45:53.925Z,13.99
2017-05-06T06:47:02.903Z,14.09
2017-05-06T06:48:11.880Z,14.09
2017-05-06T06:49:21.118Z,14.07
2017-05-06T06:50:30.092Z,14.02
2017-05-06T06:51:39.152Z,14.14
2017-05-06T06:52:48.139Z,14.06
2017-05-06T06:53:57.451Z,14.04
2017-05-06T06:55:06.686Z,14.02
2017-05-06T06:56:15.668Z,14.12
2017-05-06T06:57:24.641Z,13.99
2017-05-06T06:58:33.625Z,14.04
2017-05-06T06:59:42.608Z,14.06
2017-05-06T07:00:51.838Z,13.89
2017-05-06T07:02:01.145Z,13.92
2017-05-06T07:03:10.135Z,13.96
2017-05-06T07:04:19.134Z,13.96
2017-05-06T07:05:28.099Z,14.07
2017-05-06T07:06:37.311Z,14.02
2017-05-06T07:07:46.268Z,14.02
2017-05-06T07:08:55.550Z,14.04
2017-05-06T07:10:04.512Z,14
2017-05-06T07:11:13.469Z,14.1
2017-05-06T07:12:22.675Z,14.03
2017-05-06T07:13:31.642Z,14.18
2017-05-06T07:14:40.598Z,14.15
2017-05-06T07:15:49.554Z,14.1
2017-05-06T07:16:58.514Z,14.1
2017-05-06T07:18:07.740Z,14.27
2017-05-06T07:19:16.790Z,14.21
2017-05-06T07:20:25.755Z,14.18
2017-05-06T07:21:34.719Z,14.17
2017-05-06T07:22:43.676Z,14.15
2017-05-06T07:23:53.470Z,14.22
2017-05-06T07:25:02.855Z,14.2
2017-05-06T07:26:11.909Z,14.24
2017-05-06T07:27:20.864Z,14.09
2017-05-06T07:28:29.957Z,14.17
2017-05-06T07:29:39.964Z,14.17
2017-05-06T07:30:48.959Z,14.14
2017-05-06T07:31:57.985Z,14.22
2017-05-06T07:33:07.126Z,14.21
2017-05-06T07:34:16.172Z,14.24
2017-05-06T07:35:25.583Z,14.18
2017-05-06T07:36:34.636Z,14.22
2017-05-06T07:37:45.010Z,14.29
2017-05-06T07:38:55.733Z,14.21
2017-05-06T07:40:04.688Z,14.33
2017-05-06T07:41:13.897Z,14.27
2017-05-06T07:42:22.851Z,14.33
2017-05-06T07:43:31.981Z,14.32
2017-05-06T07:44:40.944Z,14.37
2017-05-06T07:45:49.904Z,14.39
2017-05-06T07:46:59.113Z,14.28
2017-05-06T07:48:08.105Z,14.39
2017-05-06T07:49:17.271Z,14.35
2017-05-06T07:50:26.231Z,14.42
2017-05-06T07:51:35.196Z,14.43
2017-05-06T07:52:44.403Z,14.51
2017-05-06T07:53:53.396Z,14.51
2017-05-06T07:55:02.359Z,14.58
2017-05-06T07:56:11.312Z,14.57
2017-05-06T07:57:20.320Z,14.61
2017-05-06T07:58:29.530Z,14.61
2017-05-06T07:59:38.485Z,14.6
2017-05-06T08:00:47.447Z,14.61
2017-05-06T08:01:56.408Z,14.73
2017-05-06T08:03:05.365Z,14.72
2017-05-06T08:04:14.573Z,14.83
2017-05-06T08:05:23.533Z,14.78
2017-05-06T08:06:32.578Z,14.83
2017-05-06T08:07:41.534Z,14.96
2017-05-06T08:08:50.492Z,14.96
2017-05-06T08:09:59.745Z,14.95
2017-05-06T08:11:08.709Z,14.92
2017-05-06T08:12:17.990Z,14.96
2017-05-06T08:13:26.946Z,14.94
2017-05-06T08:14:36.080Z,14.8
2017-05-06T08:15:45.293Z,14.81
2017-05-06T08:16:54.256Z,14.77
2017-05-06T08:18:03.309Z,14.81
2017-05-06T08:19:12.270Z,14.88
2017-05-06T08:20:21.225Z,14.77
2017-05-06T08:21:30.433Z,14.78
2017-05-06T08:22:39.393Z,14.78
2017-05-06T08:23:48.348Z,14.92
2017-05-06T08:24:57.305Z,14.92
2017-05-06T08:26:06.264Z,14.96
2017-05-06T08:27:15.538Z,14.98
2017-05-06T08:28:24.519Z,14.94
2017-05-06T08:29:33.484Z,14.92
2017-05-06T08:30:42.441Z,15.01
2017-05-06T08:31:51.439Z,14.92
2017-05-06T08:33:00.787Z,15.01
2017-05-06T08:34:09.808Z,15.11
2017-05-06T08:35:18.765Z,15.19
2017-05-06T08:36:27.732Z,15.19
2017-05-06T08:37:36.690Z,15.25
2017-05-06T08:38:45.909Z,15.38
2017-05-06T08:39:55.194Z,15.43
2017-05-06T08:41:04.154Z,15.5
2017-05-06T08:42:13.236Z,15.59
2017-05-06T08:43:22.218Z,15.82
2017-05-06T08:44:31.778Z,15.9
2017-05-06T08:45:40.756Z,16.07
2017-05-06T08:46:50.085Z,16.01
2017-05-06T08:47:59.231Z,16.05
2017-05-06T08:49:08.551Z,16.11
2017-05-06T08:50:18.413Z,16.12
2017-05-06T08:51:27.384Z,16.25
2017-05-06T08:52:36.370Z,16.45
2017-05-06T08:53:45.739Z,16.42
2017-05-06T08:54:54.696Z,16.43
2017-05-06T08:56:03.907Z,16.5
2017-05-06T08:57:12.868Z,16.48
2017-05-06T08:58:21.828Z,16.48
2017-05-06T08:59:30.784Z,16.58
2017-05-06T09:00:39.752Z,16.63
2017-05-06T09:01:48.959Z,16.61
2017-05-06T09:02:57.923Z,16.56
2017-05-06T09:04:06.883Z,16.57
2017-05-06T09:05:15.842Z,16.58
2017-05-06T09:06:24.802Z,16.68
2017-05-06T09:07:34.009Z,16.66
2017-05-06T09:08:42.967Z,16.66
2017-05-06T09:09:51.926Z,16.7
2017-05-06T09:11:00.900Z,16.68
2017-05-06T09:12:09.869Z,16.71
2017-05-06T09:13:19.079Z,16.76
2017-05-06T09:14:28.041Z,16.81
2017-05-06T09:15:37.002Z,16.89
2017-05-06T09:16:46.049Z,16.89
2017-05-06T09:17:55.423Z,16.91
2017-05-06T09:19:04.681Z,16.94
2017-05-06T09:20:13.736Z,17.06
2017-05-06T09:21:22.697Z,17.07
2017-05-06T09:22:31.659Z,17.15
2017-05-06T09:23:40.962Z,17.15
2017-05-06T09:24:50.651Z,17.07
2017-05-06T09:25:59.611Z,17.12
2017-05-06T09:27:08.572Z,17.26
2017-05-06T09:28:17.532Z,17.38
2017-05-06T09:29:27.148Z,17.48
2017-05-06T09:30:36.364Z,17.62
2017-05-06T09:31:45.412Z,17.7
2017-05-06T09:32:54.400Z,17.72
2017-05-06T09:34:03.360Z,17.77
2017-05-06T09:35:12.322Z,17.89
2017-05-06T09:36:21.526Z,17.81
2017-05-06T09:37:30.489Z,17.86
2017-05-06T09:38:39.456Z,17.86
2017-05-06T09:39:48.417Z,17.97
2017-05-06T09:40:57.793Z,17.96
2017-05-06T09:42:07.087Z,17.96
2017-05-06T09:43:16.048Z,17.93
2017-05-06T09:44:25.010Z,17.81
2017-05-06T09:45:33.972Z,17.87
2017-05-06T09:46:42.930Z,17.81
2017-05-06T09:47:52.147Z,17.71
2017-05-06T09:49:01.114Z,17.78
2017-05-06T09:50:10.077Z,17.86
2017-05-06T09:51:19.042Z,17.84
2017-05-06T09:52:28.011Z,17.89
2017-05-06T09:53:37.234Z,17.86
2017-05-06T09:54:46.196Z,17.96
2017-05-06T09:55:55.156Z,18.02
2017-05-06T09:57:04.115Z,18.1
2017-05-06T09:58:13.209Z,18.07
2017-05-06T09:59:22.616Z,18.11
2017-05-06T10:00:31.682Z,18.07
2017-05-06T10:01:40.707Z,18
2017-05-06T10:02:49.808Z,18.02
2017-05-06T10:03:58.866Z,18.02
2017-05-06T10:05:08.384Z,18.03
2017-05-06T10:06:17.378Z,18.03
2017-05-06T10:07:26.540Z,18.03
2017-05-06T10:08:35.686Z,18.1
2017-05-06T10:09:44.805Z,18.18
2017-05-06T10:10:54.280Z,18.26
2017-05-06T10:12:03.451Z,18.27
2017-05-06T10:13:13.067Z,18.23
2017-05-06T10:14:22.033Z,18.26
2017-05-06T10:15:30.992Z,18.18
2017-05-06T10:16:40.400Z,18.11
2017-05-06T10:17:49.392Z,18.1
2017-05-06T10:18:58.349Z,18.12
2017-05-06T10:20:07.313Z,18.1
2017-05-06T10:21:16.287Z,18.03
2017-05-06T10:22:25.505Z,18.14
2017-05-06T10:23:34.553Z,18.03
2017-05-06T10:24:43.527Z,18.08
2017-05-06T10:25:52.821Z,17.96
2017-05-06T10:27:01.783Z,17.9
2017-05-06T10:28:11.000Z,17.92
2017-05-06T10:29:19.958Z,17.89
2017-05-06T10:30:29.043Z,17.92
2017-05-06T10:31:38.007Z,17.77
2017-05-06T10:32:47.003Z,17.79
2017-05-06T10:33:56.254Z,17.63
2017-05-06T10:35:05.280Z,17.78
2017-05-06T10:36:14.293Z,17.72
2017-05-06T10:37:23.404Z,17.71
2017-05-06T10:38:32.368Z,17.66
2017-05-06T10:39:41.663Z,17.7
2017-05-06T10:40:50.626Z,17.64
2017-05-06T10:41:59.670Z,17.64
2017-05-06T10:43:08.631Z,17.58
2017-05-06T10:44:17.590Z,17.51
2017-05-06T10:45:26.809Z,17.59
2017-05-06T10:46:35.771Z,17.44
2017-05-06T10:47:44.740Z,17.4
2017-05-06T10:48:53.740Z,17.41
2017-05-06T10:50:02.789Z,17.4
2017-05-06T10:51:12.094Z,17.46
2017-05-06T10:52:21.052Z,17.44
2017-05-06T10:53:30.010Z,17.41
2017-05-06T10:54:38.966Z,17.41
2017-05-06T10:55:47.928Z,17.37
2017-05-06T10:56:57.140Z,17.38
2017-05-06T10:58:06.101Z,17.36
2017-05-06T10:59:15.057Z,17.4
2017-05-06T11:00:24.012Z,17.43
2017-05-06T11:01:32.975Z,17.44
2017-05-06T11:02:42.181Z,17.36
2017-05-06T11:03:51.142Z,17.34
2017-05-06T11:05:00.104Z,17.4
2017-05-06T11:06:09.153Z,17.41
2017-05-06T11:07:18.140Z,17.41
2017-05-06T11:08:27.352Z,17.4
2017-05-06T11:09:36.307Z,17.43
2017-05-06T11:10:45.285Z,17.52
2017-05-06T11:11:54.246Z,17.56
2017-05-06T11:13:03.322Z,17.58
2017-05-06T11:14:12.537Z,17.52
2017-05-06T11:15:21.496Z,17.56
2017-05-06T11:16:30.454Z,17.54
2017-05-06T11:17:39.503Z,17.48
2017-05-06T11:18:48.479Z,17.41
2017-05-06T11:19:57.691Z,17.44
2017-05-06T11:21:06.909Z,17.34
2017-05-06T11:22:15.867Z,17.38
2017-05-06T11:23:24.822Z,17.28
2017-05-06T11:24:33.877Z,17.31
2017-05-06T11:25:43.159Z,17.31
2017-05-06T11:26:52.197Z,17.25
2017-05-06T11:28:01.180Z,17.23
2017-05-06T11:29:10.137Z,17.34
2017-05-06T11:30:19.095Z,17.33
2017-05-06T11:31:28.389Z,17.3
2017-05-06T11:32:37.421Z,17.4
2017-05-06T11:33:46.411Z,17.44
2017-05-06T11:34:55.692Z,17.41
2017-05-06T11:36:04.694Z,17.41
2017-05-06T11:37:14.132Z,17.46
2017-05-06T11:38:23.177Z,17.41
2017-05-06T11:39:32.207Z,17.38
2017-05-06T11:40:41.518Z,17.48
2017-05-06T11:41:50.640Z,17.52
2017-05-06T11:43:00.135Z,17.49
2017-05-06T11:44:09.096Z,17.48
2017-05-06T11:45:18.749Z,17.59
2017-05-06T11:46:27.829Z,17.66
2017-05-06T11:47:37.022Z,17.63
2017-05-06T11:48:46.232Z,17.63
2017-05-06T11:49:55.376Z,17.7
2017-05-06T11:51:04.472Z,17.7
2017-05-06T11:52:13.581Z,17.74
2017-05-06T11:53:22.591Z,17.75
2017-05-06T11:54:31.898Z,17.79
2017-05-06T11:55:41.001Z,17.84
2017-05-06T11:56:49.968Z,17.89
2017-05-06T11:57:59.003Z,17.82
2017-05-06T11:59:08.015Z,17.9
2017-05-06T12:00:17.489Z,17.92
2017-05-06T12:01:26.464Z,17.97
2017-05-06T12:02:35.724Z,18.1
2017-05-06T12:03:45.222Z,17.99
2017-05-06T12:04:54.503Z,18.02
2017-05-06T12:06:03.940Z,18.12
2017-05-06T12:07:12.943Z,18.11
2017-05-06T12:08:22.056Z,18.15
2017-05-06T12:09:31.257Z,18.1
2017-05-06T12:10:40.472Z,18.11
2017-05-06T12:11:49.753Z,18.17
2017-05-06T12:12:59.009Z,18.15
2017-05-06T12:14:08.245Z,18.29
2017-05-06T12:15:17.201Z,18.35
2017-05-06T12:16:26.193Z,18.33
2017-05-06T12:17:35.438Z,18.37
2017-05-06T12:18:44.396Z,18.39
2017-05-06T12:19:53.358Z,18.41
2017-05-06T12:21:02.649Z,18.36
2017-05-06T12:22:11.614Z,18.41
2017-05-06T12:23:20.836Z,18.48
2017-05-06T12:24:29.802Z,18.51
2017-05-06T12:25:38.782Z,18.6
2017-05-06T12:26:47.744Z,18.63
2017-05-06T12:27:56.722Z,18.6
2017-05-06T12:29:05.940Z,18.69
2017-05-06T12:30:14.977Z,18.67
2017-05-06T12:31:23.932Z,18.76
2017-05-06T12:32:32.903Z,18.7
2017-05-06T12:33:41.862Z,18.88
2017-05-06T12:34:51.107Z,18.94
2017-05-06T12:36:00.065Z,18.99
2017-05-06T12:37:09.404Z,19
2017-05-06T12:38:18.550Z,19
2017-05-06T12:39:27.511Z,19.11
2017-05-06T12:40:36.722Z,19.16
2017-05-06T12:41:45.684Z,19.13
2017-05-06T12:42:54.717Z,19.07
2017-05-06T12:44:03.974Z,19
2017-05-06T12:45:13.248Z,18.98
2017-05-06T12:46:22.652Z,19
2017-05-06T12:47:31.614Z,19.02
2017-05-06T12:48:40.576Z,19.02
2017-05-06T12:49:49.763Z,18.94
2017-05-06T12:50:59.558Z,18.9
2017-05-06T12:52:08.871Z,18.84
2017-05-06T12:53:18.028Z,18.84
2017-05-06T12:54:27.066Z,18.76
2017-05-06T12:55:36.264Z,18.75
2017-05-06T12:56:45.411Z,18.81
2017-05-06T12:57:54.843Z,18.91
2017-05-06T12:59:03.965Z,18.76
2017-05-06T13:00:13.030Z,18.75
2017-05-06T13:01:22.138Z,18.87
2017-05-06T13:02:31.190Z,18.95
2017-05-06T13:03:40.482Z,18.82
2017-05-06T13:04:49.656Z,18.88
2017-05-06T13:05:58.877Z,18.9
2017-05-06T13:07:07.978Z,18.9
2017-05-06T13:08:17.011Z,18.78
2017-05-06T13:09:26.582Z,18.75
2017-05-06T13:10:35.750Z,18.78
2017-05-06T13:11:44.975Z,18.78
2017-05-06T13:12:54.046Z,18.65
2017-05-06T13:14:03.108Z,18.63
2017-05-06T13:15:12.507Z,18.73
2017-05-06T13:16:21.504Z,18.7
2017-05-06T13:17:30.511Z,18.8
2017-05-06T13:18:39.524Z,18.81
2017-05-06T13:19:48.571Z,18.8
2017-05-06T13:20:57.779Z,18.66
2017-05-06T13:22:06.812Z,18.66
2017-05-06T13:23:16.202Z,18.69
2017-05-06T13:24:25.398Z,18.67
2017-05-06T13:25:34.563Z,18.73
2017-05-06T13:26:44.533Z,18.73
2017-05-06T13:27:54.275Z,18.69
2017-05-06T13:29:03.327Z,18.78
2017-05-06T13:30:12.491Z,18.73
2017-05-06T13:31:26.657Z,18.8
2017-05-06T13:32:35.936Z,18.8
2017-05-06T13:33:44.999Z,18.81
2017-05-06T13:34:53.968Z,18.7
2017-05-06T13:36:02.932Z,18.72
2017-05-06T13:37:12.035Z,18.78
2017-05-06T13:38:21.467Z,18.78
2017-05-06T13:39:30.431Z,18.78
2017-05-06T13:40:39.613Z,18.76
2017-05-06T13:41:48.607Z,18.76
2017-05-06T13:42:58.128Z,18.72
2017-05-06T13:44:07.340Z,18.55
2017-05-06T13:45:16.322Z,18.55
2017-05-06T13:46:25.705Z,18.67
2017-05-06T13:47:34.768Z,18.58
2017-05-06T13:48:43.729Z,18.55
2017-05-06T13:49:53.035Z,18.6
2017-05-06T13:51:02.320Z,18.6
2017-05-06T13:52:11.332Z,18.65
2017-05-06T13:53:20.485Z,18.55
2017-05-06T13:54:29.594Z,18.57
2017-05-06T13:55:38.830Z,18.6
2017-05-06T13:56:48.103Z,18.54
2017-05-06T13:57:57.158Z,18.58
2017-05-06T13:59:06.421Z,18.54
2017-05-06T14:00:15.436Z,18.52
2017-05-06T14:01:26.074Z,18.63
2017-05-06T14:02:35.241Z,18.55
2017-05-06T14:03:44.392Z,18.54
2017-05-06T14:04:53.521Z,18.5
2017-05-06T14:06:02.479Z,18.47
2017-05-06T14:07:11.775Z,18.52
2017-05-06T14:08:20.829Z,18.45
2017-05-06T14:09:29.918Z,18.41
2017-05-06T14:10:38.927Z,18.35
2017-05-06T14:11:48.052Z,18.33
2017-05-06T14:12:57.674Z,18.44
2017-05-06T14:14:06.728Z,18.35
2017-05-06T14:15:15.750Z,18.36
2017-05-06T14:16:24.843Z,18.42
2017-05-06T14:17:33.933Z,18.55
2017-05-06T14:18:43.915Z,18.5
2017-05-06T14:19:52.919Z,18.55
2017-05-06T14:21:02.172Z,18.52
2017-05-06T14:22:11.260Z,18.52
2017-05-06T14:23:20.561Z,18.54
2017-05-06T14:24:30.130Z,18.54
2017-05-06T14:25:39.354Z,18.63
2017-05-06T14:26:48.370Z,18.6
2017-05-06T14:27:57.772Z,18.54
2017-05-06T14:29:06.739Z,18.54
2017-05-06T14:30:15.979Z,18.55
2017-05-06T14:31:25.029Z,18.52
2017-05-06T14:32:34.068Z,18.5
2017-05-06T14:33:43.231Z,18.51
2017-05-06T14:34:52.228Z,18.44
2017-05-06T14:36:01.455Z,18.41
2017-05-06T14:37:10.896Z,18.48
2017-05-06T14:38:19.857Z,18.42
2017-05-06T14:39:28.821Z,18.45
2017-05-06T14:40:37.783Z,18.36
2017-05-06T14:41:47.127Z,18.32
2017-05-06T14:42:56.086Z,18.44
2017-05-06T14:44:05.048Z,18.42
2017-05-06T14:45:14.012Z,18.42
2017-05-06T14:46:22.976Z,18.39
2017-05-06T14:47:32.185Z,18.36
2017-05-06T14:48:41.158Z,18.39
2017-05-06T14:49:50.116Z,18.35
2017-05-06T14:50:59.081Z,18.35
2017-05-06T14:52:08.133Z,18.35
2017-05-06T14:53:17.348Z,18.23
2017-05-06T14:54:26.309Z,18.25
2017-05-06T14:55:35.267Z,18.27